createdAt,value
2023-05-23T00:01:08.453Z,8.88
2023-05-23T00:03:35.880Z,9.43
2023-05-23T00:06:07.320Z,9.20
2023-05-23T00:08:40.347Z,9.25
2023-05-23T00:11:10.551Z,9.90
2023-05-23T00:13:40.052Z,8.73
2023-05-23T00:16:09.862Z,9.15
2023-05-23T00:18:38.053Z,9.03
2023-05-23T00:21:05.559Z,8.73
2023-05-23T00:23:34.076Z,9.10
2023-05-23T00:26:01.446Z,8.45
2023-05-23T00:28:28.590Z,8.68
2023-05-23T00:30:55.895Z,8.32
2023-05-23T00:33:23.922Z,8.60
2023-05-23T00:35:51.154Z,8.38
2023-05-23T00:38:18.833Z,7.78
2023-05-23T00:40:45.963Z,8.85
2023-05-23T00:43:13.040Z,8.50
2023-05-23T00:45:40.415Z,9.10
2023-05-23T00:48:07.837Z,8.73
2023-05-23T00:50:36.546Z,8.85
2023-05-23T00:53:03.697Z,8.88
2023-05-23T00:55:31.078Z,8.82
2023-05-23T00:57:58.470Z,8.85
2023-05-23T01:00:26.206Z,8.88
2023-05-23T01:02:53.989Z,8.05
2023-05-23T01:05:25.380Z,8.55
2023-05-23T01:07:52.906Z,8.80
2023-05-23T01:10:21.780Z,8.45
2023-05-23T01:13:11.437Z,9.02
2023-05-23T01:15:49.370Z,7.53
2023-05-23T01:18:30.727Z,7.75
2023-05-23T01:20:59.956Z,7.80
2023-05-23T01:24:05.227Z,8.13
2023-05-23T01:26:48.492Z,8.15
2023-05-23T01:29:19.752Z,8.50
2023-05-23T01:31:47.223Z,8.13
2023-05-23T01:34:14.539Z,8.23
2023-05-23T01:36:42.697Z,8.77
2023-05-23T01:39:10.822Z,8.38
2023-05-23T01:41:37.980Z,8.02
2023-05-23T01:44:05.134Z,8.40
2023-05-23T01:46:32.471Z,8.65
2023-05-23T01:48:59.667Z,8.80
2023-05-23T01:51:27.388Z,9.13
2023-05-23T01:53:54.438Z,8.68
2023-05-23T01:56:21.915Z,9.63
2023-05-23T01:58:49.158Z,8.43
2023-05-23T02:01:16.253Z,8.80
2023-05-23T02:03:43.704Z,8.10
2023-05-23T02:06:11.508Z,7.82
2023-05-23T02:08:39.020Z,8.20
2023-05-23T02:11:08.682Z,8.35
2023-05-23T02:13:35.908Z,7.97
2023-05-23T02:16:04.176Z,7.57
2023-05-23T02:18:31.252Z,8.00
2023-05-23T02:20:58.498Z,8.32
2023-05-23T02:23:25.654Z,7.95
2023-05-23T02:25:52.719Z,8.07
2023-05-23T02:28:20.116Z,8.25
2023-05-23T02:30:47.297Z,8.40
2023-05-23T02:33:14.552Z,8.90
2023-05-23T02:35:41.978Z,7.80
2023-05-23T02:38:09.242Z,8.20
2023-05-23T02:40:36.333Z,8.70
2023-05-23T02:43:03.737Z,8.57
2023-05-23T02:45:30.800Z,8.43
2023-05-23T02:47:57.976Z,7.88
2023-05-23T02:50:25.113Z,7.82
2023-05-23T02:52:52.270Z,7.80
2023-05-23T02:55:19.460Z,7.43
2023-05-23T02:57:46.546Z,8.40
2023-05-23T03:00:14.213Z,7.88
2023-05-23T03:02:41.644Z,8.25
2023-05-23T03:05:08.971Z,7.70
2023-05-23T03:07:36.912Z,7.28
2023-05-23T03:10:04.284Z,8.30
2023-05-23T03:12:31.437Z,7.65
2023-05-23T03:14:58.609Z,7.55
2023-05-23T03:17:26.097Z,8.38
2023-05-23T03:19:53.366Z,8.50
2023-05-23T03:22:20.506Z,8.02
2023-05-23T03:24:47.820Z,8.25
2023-05-23T03:27:15.098Z,9.80
2023-05-23T03:29:42.270Z,10.77
2023-05-23T03:32:09.633Z,10.18
2023-05-23T03:34:36.965Z,9.27
2023-05-23T03:37:04.465Z,9.43
2023-05-23T03:39:31.733Z,8.68
2023-05-23T03:41:58.918Z,9.30
2023-05-23T03:44:26.458Z,8.98
2023-05-23T03:46:53.646Z,8.38
2023-05-23T03:49:20.796Z,8.43
2023-05-23T03:51:47.928Z,8.63
2023-05-23T03:54:15.126Z,8.30
2023-05-23T03:56:42.374Z,7.88
2023-05-23T03:59:09.586Z,8.00
2023-05-23T04:01:36.770Z,7.57
2023-05-23T04:04:05.302Z,7.22
2023-05-23T04:06:34.068Z,7.70
2023-05-23T04:09:02.809Z,7.30
2023-05-23T04:11:30.586Z,7.50
2023-05-23T04:13:58.488Z,8.30
2023-05-23T04:16:26.224Z,8.00
2023-05-23T04:18:54.684Z,7.80
2023-05-23T04:21:21.932Z,8.00
2023-05-23T04:23:49.098Z,9.02
2023-05-23T04:26:16.544Z,8.50
2023-05-23T04:28:46.476Z,8.40
2023-05-23T04:31:14.174Z,8.60
2023-05-23T04:33:41.628Z,9.02
2023-05-23T04:36:09.647Z,8.40
2023-05-23T04:38:38.765Z,8.02
2023-05-23T04:41:12.555Z,7.90
2023-05-23T04:43:42.997Z,8.75
2023-05-23T04:46:13.715Z,8.55
2023-05-23T04:48:43.166Z,7.82
2023-05-23T04:51:14.846Z,7.85
2023-05-23T04:53:45.649Z,8.20
2023-05-23T04:56:13.449Z,8.07
2023-05-23T04:58:42.472Z,8.63
2023-05-23T05:01:10.511Z,7.80
2023-05-23T05:03:38.314Z,7.72
2023-05-23T05:06:06.579Z,7.35
2023-05-23T05:08:33.955Z,8.07
2023-05-23T05:11:01.352Z,8.13
2023-05-23T05:13:28.773Z,7.15
2023-05-23T05:15:56.054Z,9.80
2023-05-23T05:18:23.208Z,12.13
2023-05-23T05:20:50.520Z,11.43
2023-05-23T05:23:18.154Z,10.95
2023-05-23T05:25:45.477Z,10.00
2023-05-23T05:28:12.732Z,10.75
2023-05-23T05:30:40.330Z,10.07
2023-05-23T05:33:07.979Z,9.35
2023-05-23T05:35:35.513Z,9.93
2023-05-23T05:38:05.540Z,9.32
2023-05-23T05:40:32.965Z,9.40
2023-05-23T05:43:00.151Z,7.75
2023-05-23T05:45:27.250Z,8.82
2023-05-23T05:47:54.396Z,8.27
2023-05-23T05:50:21.593Z,8.73
2023-05-23T05:52:48.674Z,8.27
2023-05-23T05:55:15.854Z,8.57
2023-05-23T05:57:43.198Z,8.70
2023-05-23T06:00:19.414Z,7.53
2023-05-23T06:02:57.981Z,9.00
2023-05-23T06:05:25.395Z,9.00
2023-05-23T06:07:52.630Z,8.48
2023-05-23T06:10:19.933Z,8.68
2023-05-23T06:12:47.257Z,10.20
2023-05-23T06:15:16.235Z,8.05
2023-05-23T06:17:45.103Z,8.23
2023-05-23T06:20:12.605Z,9.70
2023-05-23T06:22:39.853Z,8.50
2023-05-23T06:25:07.626Z,8.13
2023-05-23T06:27:34.862Z,10.20
2023-05-23T06:30:02.645Z,8.70
2023-05-23T06:32:29.786Z,10.00
2023-05-23T06:34:57.248Z,7.85
2023-05-23T06:37:26.300Z,8.02
2023-05-23T06:39:54.231Z,8.25
2023-05-23T06:42:24.608Z,7.15
2023-05-23T06:44:59.160Z,6.97
2023-05-23T06:47:26.528Z,7.68
2023-05-23T06:49:54.356Z,6.95
2023-05-23T06:57:52.301Z,7.57
2023-05-23T07:00:20.758Z,9.35
2023-05-23T07:02:52.168Z,7.80
2023-05-23T07:05:22.948Z,8.63
2023-05-23T07:10:39.408Z,7.40
2023-05-23T07:16:51.967Z,5.85
2023-05-23T07:19:21.460Z,6.38
2023-05-23T07:21:51.971Z,6.78
2023-05-23T07:27:23.777Z,7.10
2023-05-23T07:29:51.223Z,6.85
2023-05-23T07:32:18.387Z,7.18
2023-05-23T07:34:45.775Z,7.25
2023-05-23T07:37:13.162Z,5.95
2023-05-23T07:39:44.005Z,6.35
2023-05-23T07:42:11.326Z,6.65
2023-05-23T07:44:38.484Z,7.07
2023-05-23T07:47:05.681Z,6.05
2023-05-23T07:49:34.019Z,7.75
2023-05-23T07:52:01.768Z,7.07
2023-05-23T07:54:28.959Z,6.53
2023-05-23T07:56:56.461Z,7.10
2023-05-23T07:59:23.728Z,6.88
2023-05-23T08:01:54.932Z,7.18
2023-05-23T08:04:22.367Z,5.88
2023-05-23T08:07:04.146Z,7.15
2023-05-23T08:09:32.036Z,6.53
2023-05-23T08:11:59.357Z,6.25
2023-05-23T08:14:42.310Z,5.78
2023-05-23T08:17:15.279Z,6.00
2023-05-23T08:19:42.659Z,5.38
2023-05-23T08:22:10.035Z,6.07
2023-05-23T08:24:37.348Z,5.50
2023-05-23T08:27:09.487Z,5.55
2023-05-23T08:29:39.602Z,5.85
2023-05-23T08:32:06.998Z,5.97
2023-05-23T08:34:34.458Z,6.38
2023-05-23T08:37:01.768Z,5.38
2023-05-23T08:39:29.193Z,5.97
2023-05-23T08:41:56.683Z,5.95
2023-05-23T08:44:23.852Z,6.13
2023-05-23T08:46:51.961Z,5.25
2023-05-23T08:49:19.167Z,6.20
2023-05-23T08:51:46.516Z,5.22
2023-05-23T08:54:13.675Z,5.28
2023-05-23T08:56:45.581Z,4.90
2023-05-23T08:59:12.763Z,6.35
2023-05-23T09:01:40.267Z,5.55
2023-05-23T09:04:07.718Z,5.40
2023-05-23T09:06:35.470Z,4.75
2023-05-23T09:09:02.688Z,4.53
2023-05-23T09:11:29.864Z,5.20
2023-05-23T09:13:58.031Z,5.70
2023-05-23T09:16:27.448Z,4.72
2023-05-23T09:18:55.215Z,4.75
2023-05-23T09:21:26.339Z,4.80
2023-05-23T09:23:54.108Z,4.63
2023-05-23T09:26:24.612Z,5.47
2023-05-23T09:56:23.938Z,4.90
2023-05-23T09:58:54.390Z,4.47
2023-05-23T10:01:22.335Z,4.72
2023-05-23T10:03:59.371Z,4.72
2023-05-23T10:33:41.550Z,6.03
2023-05-23T10:36:43.626Z,5.75
2023-05-23T10:39:38.187Z,5.15
2023-05-23T10:45:51.160Z,5.20
2023-05-23T10:48:23.100Z,5.65
2023-05-23T10:51:05.098Z,5.45
2023-05-23T10:53:33.933Z,5.88
2023-05-23T10:56:01.442Z,5.47
2023-05-23T11:02:16.213Z,4.95
2023-05-23T11:04:43.786Z,6.03
2023-05-23T11:07:49.114Z,5.90
2023-05-23T11:10:17.016Z,4.95
2023-05-23T11:13:07.985Z,7.55
2023-05-23T11:19:21.495Z,6.40
2023-05-23T11:24:24.180Z,4.78
2023-05-23T11:27:04.751Z,6.15
2023-05-23T11:29:32.414Z,8.45
2023-05-23T11:31:59.805Z,6.22
2023-05-23T11:34:27.590Z,4.90
2023-05-23T11:36:57.912Z,5.70
2023-05-23T11:42:04.571Z,5.18
2023-05-23T11:44:32.152Z,5.00
2023-05-23T11:47:06.618Z,5.10
2023-05-23T11:49:40.745Z,4.50
2023-05-23T11:52:08.392Z,5.43
2023-05-23T11:54:35.881Z,5.30
2023-05-23T11:57:03.856Z,4.85
2023-05-23T11:59:31.181Z,4.68
2023-05-23T12:01:58.491Z,4.68
2023-05-23T12:04:29.554Z,4.22
2023-05-23T12:06:57.259Z,4.38
2023-05-23T12:09:24.480Z,4.40
2023-05-23T12:11:52.363Z,4.10
2023-05-23T12:14:19.567Z,3.90
2023-05-23T12:16:49.677Z,4.38
2023-05-23T12:19:19.966Z,3.92
2023-05-23T12:24:18.436Z,4.50
2023-05-23T12:26:55.633Z,4.10
2023-05-23T12:30:33.276Z,4.47
2023-05-23T12:33:01.424Z,4.38
2023-05-23T12:35:28.609Z,3.85
2023-05-23T12:37:57.031Z,4.03
2023-05-23T12:40:24.420Z,4.80
2023-05-23T12:42:55.442Z,4.03
2023-05-23T12:45:33.185Z,4.05
2023-05-23T12:48:00.768Z,4.30
2023-05-23T12:50:27.997Z,5.07
2023-05-23T12:52:55.179Z,4.07
2023-05-23T12:55:22.311Z,4.65
2023-05-23T12:57:50.925Z,4.00
2023-05-23T13:00:19.728Z,4.32
2023-05-23T13:02:48.092Z,4.80
2023-05-23T13:05:15.283Z,4.10
2023-05-23T13:07:42.671Z,4.10
2023-05-23T13:10:10.414Z,4.18
2023-05-23T13:12:37.824Z,4.68
2023-05-23T13:15:25.098Z,4.57
2023-05-23T13:17:52.553Z,4.45
2023-05-23T13:20:19.857Z,4.90
2023-05-23T13:22:47.067Z,5.03
2023-05-23T13:25:14.241Z,4.85
2023-05-23T13:27:42.643Z,4.60
2023-05-23T13:30:10.231Z,4.40
2023-05-23T13:32:37.627Z,4.90
2023-05-23T13:35:05.653Z,4.78
2023-05-23T13:37:32.865Z,4.80
2023-05-23T13:40:02.450Z,4.50
2023-05-23T13:42:29.958Z,4.80
2023-05-23T13:44:57.216Z,4.82
2023-05-23T13:47:34.525Z,4.78
2023-05-23T13:50:01.875Z,4.85
2023-05-23T13:52:29.127Z,4.40
2023-05-23T13:54:56.885Z,4.30
2023-05-23T13:57:25.575Z,4.85
2023-05-23T14:00:16.750Z,4.35
2023-05-23T14:02:43.987Z,4.50
2023-05-23T14:05:11.189Z,4.35
2023-05-23T14:07:38.614Z,4.30
2023-05-23T14:10:07.290Z,4.95
2023-05-23T14:12:34.654Z,5.05
2023-05-23T14:15:02.094Z,4.93
2023-05-23T14:17:29.492Z,4.60
2023-05-23T14:19:56.829Z,4.53
2023-05-23T14:22:23.870Z,4.63
2023-05-23T14:24:51.203Z,4.45
2023-05-23T14:27:19.168Z,4.72
2023-05-23T14:29:47.082Z,4.55
2023-05-23T14:32:14.346Z,4.78
2023-05-23T14:34:41.772Z,4.97
2023-05-23T14:37:09.600Z,4.70
2023-05-23T14:39:36.708Z,4.95
2023-05-23T14:42:04.043Z,4.47
2023-05-23T14:44:31.236Z,5.13
2023-05-23T14:46:58.476Z,5.18
2023-05-23T14:49:30.042Z,4.63
2023-05-23T14:51:59.098Z,5.18
2023-05-23T14:54:33.764Z,5.65
2023-05-23T14:57:25.186Z,4.35
2023-05-23T14:59:55.683Z,4.50
2023-05-23T15:02:23.056Z,4.47
2023-05-23T15:04:50.280Z,5.10
2023-05-23T15:07:23.821Z,5.43
2023-05-23T15:09:51.403Z,4.72
2023-05-23T15:12:20.512Z,4.45
2023-05-23T15:14:47.666Z,4.65
2023-05-23T15:17:20.533Z,5.10
2023-05-23T15:19:48.887Z,4.97
2023-05-23T15:22:35.223Z,4.97
2023-05-23T15:25:04.687Z,4.10
2023-05-23T15:27:37.972Z,4.82
2023-05-23T15:30:05.721Z,5.05
2023-05-23T15:32:32.900Z,6.47
2023-05-23T15:35:02.759Z,5.15
2023-05-23T15:37:55.179Z,4.80
2023-05-23T15:40:21.903Z,5.18
2023-05-23T15:42:49.094Z,5.22
2023-05-23T15:45:16.239Z,5.40
2023-05-23T15:47:43.480Z,4.80
2023-05-23T15:50:15.291Z,5.90
2023-05-23T15:52:44.085Z,5.22
2023-05-23T15:55:12.689Z,5.53
2023-05-23T15:57:42.248Z,5.80
2023-05-23T16:00:10.194Z,5.75
2023-05-23T16:03:00.111Z,5.70
2023-05-23T16:05:27.649Z,6.85
2023-05-23T16:08:06.981Z,5.60
2023-05-23T16:10:34.524Z,6.03
2023-05-23T16:13:10.509Z,5.50
2023-05-23T16:15:41.692Z,5.90
2023-05-23T16:18:09.237Z,6.38
2023-05-23T16:20:36.981Z,6.28
2023-05-23T16:23:04.341Z,5.93
2023-05-23T16:25:34.607Z,6.32
2023-05-23T16:28:02.078Z,7.20
2023-05-23T16:30:29.498Z,7.93
2023-05-23T16:32:57.348Z,6.32
2023-05-23T16:38:07.249Z,6.72
2023-05-23T16:40:35.429Z,5.97
2023-05-23T16:43:04.676Z,7.88
2023-05-23T16:48:21.596Z,8.02
2023-05-23T16:50:52.960Z,8.65
2023-05-23T16:53:20.295Z,7.90
2023-05-23T16:55:48.899Z,5.97
2023-05-23T16:58:17.988Z,6.38
2023-05-23T17:03:15.991Z,6.53
2023-05-23T17:05:44.467Z,6.10
2023-05-23T17:08:12.408Z,6.78
2023-05-23T17:13:38.823Z,7.03
2023-05-23T17:16:06.365Z,7.25
2023-05-23T17:18:37.105Z,6.20
2023-05-23T17:21:04.583Z,6.22
2023-05-23T17:23:31.941Z,6.68
2023-05-23T17:25:59.274Z,6.53
2023-05-23T17:28:27.325Z,5.30
2023-05-23T17:33:36.490Z,6.93
2023-05-23T17:36:03.805Z,6.53
2023-05-23T17:38:31.064Z,8.55
2023-05-23T17:40:58.285Z,7.80
2023-05-23T17:43:25.685Z,7.45
2023-05-23T17:45:52.975Z,9.40
2023-05-23T17:48:25.822Z,7.70
2023-05-23T17:50:58.701Z,6.18
2023-05-23T17:53:27.822Z,9.50
2023-05-23T17:55:55.024Z,13.90
2023-05-23T17:58:22.525Z,9.27
2023-05-23T18:00:53.296Z,9.80
2023-05-23T18:03:21.044Z,10.57
2023-05-23T18:05:48.604Z,9.27
2023-05-23T18:08:16.102Z,8.63
2023-05-23T18:10:48.305Z,10.18
2023-05-23T18:13:17.893Z,8.77
2023-05-23T18:15:45.147Z,8.67
2023-05-23T18:18:12.890Z,8.27
2023-05-23T18:20:41.368Z,9.18
2023-05-23T18:23:09.204Z,8.43
2023-05-23T18:25:37.223Z,7.80
2023-05-23T18:28:04.558Z,8.30
2023-05-23T18:30:32.133Z,9.25
2023-05-23T18:33:02.857Z,9.40
2023-05-23T18:35:35.717Z,11.07
2023-05-23T18:38:03.303Z,8.20
2023-05-23T18:40:34.473Z,9.32
2023-05-23T18:43:02.163Z,8.90
2023-05-23T18:45:31.612Z,8.70
2023-05-23T18:47:59.089Z,9.23
2023-05-23T18:50:26.929Z,8.73
2023-05-23T18:52:54.698Z,8.85
2023-05-23T18:55:22.357Z,8.63
2023-05-23T18:57:49.743Z,8.63
2023-05-23T19:00:17.505Z,8.80
2023-05-23T19:02:46.001Z,8.90
2023-05-23T19:05:13.462Z,9.55
2023-05-23T19:07:41.185Z,9.13
2023-05-23T19:10:08.818Z,9.27
2023-05-23T19:12:36.337Z,8.43
2023-05-23T19:15:03.816Z,10.00
2023-05-23T19:17:37.559Z,9.85
2023-05-23T19:20:07.066Z,9.98
2023-05-23T19:22:50.391Z,8.93
2023-05-23T19:25:22.379Z,9.05
2023-05-23T19:27:50.063Z,10.07
2023-05-23T19:30:18.671Z,10.23
2023-05-23T19:32:46.044Z,10.52
2023-05-23T19:35:15.727Z,10.18
2023-05-23T19:37:44.605Z,10.13
2023-05-23T19:40:12.856Z,9.25
2023-05-23T19:42:40.708Z,9.20
2023-05-23T19:45:09.304Z,9.00
2023-05-23T19:47:37.205Z,8.75
2023-05-23T19:50:04.700Z,9.63
2023-05-23T19:52:35.658Z,9.32
2023-05-23T19:55:05.242Z,8.27
2023-05-23T19:57:32.715Z,8.45
2023-05-23T20:00:08.860Z,8.82
2023-05-23T20:02:36.974Z,9.52
2023-05-23T20:05:04.565Z,9.55
2023-05-23T20:07:32.059Z,10.20
2023-05-23T20:09:59.511Z,8.90
2023-05-23T20:12:27.906Z,8.80
2023-05-23T20:14:55.197Z,9.95
2023-05-23T20:17:22.715Z,8.55
2023-05-23T20:19:50.338Z,9.10
2023-05-23T20:22:19.628Z,8.50
2023-05-23T20:24:47.211Z,8.48
2023-05-23T20:27:16.867Z,10.00
2023-05-23T20:29:57.751Z,9.00
2023-05-23T20:32:30.720Z,9.18
2023-05-23T20:35:01.395Z,8.93
2023-05-23T20:40:01.145Z,11.05
2023-05-23T20:42:32.158Z,10.27
2023-05-23T20:44:59.415Z,10.77
2023-05-23T20:47:27.203Z,10.88
2023-05-23T20:49:56.114Z,10.45
2023-05-23T20:55:34.350Z,11.23
2023-05-23T21:01:08.454Z,10.38
2023-05-23T21:03:37.624Z,10.55
2023-05-23T21:06:15.633Z,10.82
2023-05-23T21:08:44.472Z,10.02
2023-05-23T21:11:11.771Z,10.10
2023-05-23T21:13:40.061Z,9.73
2023-05-23T21:16:08.949Z,9.00
2023-05-23T21:18:36.219Z,9.60
2023-05-23T21:21:03.751Z,9.55
2023-05-23T21:23:31.530Z,9.75
2023-05-23T21:25:58.993Z,9.95
2023-05-23T21:28:26.357Z,9.65
2023-05-23T21:30:54.381Z,10.13
2023-05-23T21:33:21.944Z,10.00
2023-05-23T21:35:49.665Z,10.55
2023-05-23T22:04:01.446Z,8.88
2023-05-23T22:06:28.962Z,8.70
2023-05-23T22:08:56.286Z,8.98
2023-05-23T22:11:23.749Z,9.40
2023-05-23T22:13:51.382Z,10.18
2023-05-23T22:16:18.712Z,10.07
2023-05-23T22:21:16.302Z,10.32
2023-05-23T22:23:43.512Z,10.32
2023-05-23T22:26:12.916Z,9.43
2023-05-23T22:28:40.224Z,9.63
2023-05-23T22:31:07.859Z,9.45
2023-05-23T22:33:36.499Z,9.45
2023-05-23T22:36:03.778Z,10.15
2023-05-23T22:38:31.601Z,10.02
2023-05-23T22:40:58.973Z,9.98
2023-05-23T22:43:26.309Z,8.52
2023-05-23T22:45:53.628Z,10.07
2023-05-23T22:48:21.237Z,10.00
2023-05-23T22:50:49.080Z,8.73
2023-05-23T22:53:17.206Z,10.27
2023-05-23T22:55:44.360Z,10.35
2023-05-23T22:58:12.289Z,10.70
2023-05-23T23:03:24.826Z,10.27
2023-05-23T23:05:52.219Z,9.82
2023-05-23T23:08:19.784Z,9.55
2023-05-23T23:10:47.087Z,9.32
2023-05-23T23:13:14.723Z,10.00
2023-05-23T23:15:43.374Z,9.23
2023-05-23T23:18:13.696Z,9.57
2023-05-23T23:20:41.757Z,9.18
2023-05-23T23:23:09.092Z,9.13
2023-05-23T23:25:36.653Z,8.85
2023-05-23T23:28:05.113Z,9.02
2023-05-23T23:30:32.231Z,9.07
2023-05-23T23:32:59.345Z,9.30
2023-05-23T23:35:28.978Z,9.13
2023-05-23T23:37:56.089Z,9.30
2023-05-23T23:40:23.275Z,10.20
2023-05-23T23:42:50.780Z,10.15
2023-05-23T23:45:17.823Z,8.95
2023-05-23T23:47:46.389Z,9.05
2023-05-23T23:50:14.119Z,8.63
2023-05-23T23:52:41.459Z,8.98
2023-05-23T23:55:08.982Z,9.02
2023-05-23T23:57:36.197Z,8.98
